Bei Facebook empfehlenBei Twitter postenGoogle plusPinterest

Das Wetter im Erzgebirge am 08.05.2016

Wetter und Klima am 08.05.2016 Holzhau im Erzgebirge (630m ü.NN)
Letzte gemessene Temperatur und Uhrzeit der Messung23:45:00 Uhr8.40 °C
Temperatur (Maximum / Höchstwert) und Uhrzeit der Messung15:30:00 Uhr19.50 °C
Temperatur (Minimum / Tiefstwert) und Uhrzeit der Messung04:30:006.30 °C
Errechneter Absolutwert der Temperaturschwankungen zwischen Tmin und Tmax des Tages13.20 K
Errechnete Tagesmitteltemperatur12.93438 °C
Gesamt - Niederschlag des Tages (in flüssiger Form)0.00 Liter / m²
Luftdruck (Maximum / Höchstwert) und Zeitpunkt der Messung23:30:00 Uhr1015.00 hPa
Luftdruck (Minimum / Tiefstwert) und Zeitpunkt der Messung04:30:00 Uhr1013.50 hPa
Errechneter Absolutwert der Luftdruckschwankungen des Tages1.50 hPa
Höchste gemessene Windgeschwindigkeit und Uhrzeit der Messung23:45:00 Uhr0.00 km/h
Errechnete Windhäufigkeit in Relation zu den Messwerten des Tages0.00000 %
Niedrigste Windkühle (Windchill) und Zeitpunkt der Messung04:30:00 Uhr6.30 °C
Taupunkt (Maximum / Höchstwert) und Uhrzeit der Messung12:00:00 Uhr8.70 °C
Taupunkt (Minimum / Tiefstwert) und Uhrzeit der Messung02:30:002.50 °C
Anzahl der automatisch eingelesenen Messwerte 96

Detaillierte Wetter- und Klima- Messwerte für den 08.05.2016 in Holzhau im Erzgebirge (630m ü.NN)
ZeitTemperaturLuftdruckRel. LuftfeuchteWindWindrichtungWindchillTaupunktNiederschlag l/m²
23:45:008.40 °C1014.90 hPa82.00 %5.50 °C 
23:30:007.50 °C1015.00 hPa81.00 %4.50 °C 
23:15:007.50 °C1014.90 hPa80.00 %4.30 °C 
23:00:007.80 °C1014.90 hPa80.00 %4.60 °C 
22:45:007.80 °C1015.00 hPa80.00 %4.60 °C 
22:30:007.70 °C1014.90 hPa79.00 %4.30 °C 
22:15:007.90 °C1015.00 hPa78.00 %4.30 °C 
22:00:008.10 °C1014.80 hPa77.00 %4.30 °C 
21:45:008.40 °C1014.80 hPa76.00 %4.40 °C 
21:30:008.90 °C1014.90 hPa74.00 %4.50 °C 
21:15:009.10 °C1014.80 hPa73.00 %4.50 °C 
21:00:009.40 °C1015.00 hPa71.00 %4.40 °C 
20:45:009.90 °C1014.90 hPa69.00 %4.50 °C 
20:30:0010.50 °C1014.90 hPa67.00 %4.60 °C 
20:15:0011.30 °C1014.80 hPa64.00 %4.70 °C 
20:00:0012.50 °C1014.70 hPa61.00 %5.20 °C 
19:45:0013.60 °C1014.60 hPa59.00 %5.70 °C 
19:30:0014.60 °C1014.70 hPa57.00 %6.20 °C 
19:15:0015.40 °C1014.60 hPa56.00 %6.70 °C 
19:00:0015.90 °C1014.50 hPa55.00 %6.90 °C 
18:45:0016.60 °C1014.30 hPa54.00 %7.30 °C 
18:30:0016.90 °C1014.30 hPa53.00 %7.30 °C 
18:15:0017.20 °C1014.20 hPa53.00 %7.50 °C 
18:00:0017.50 °C1014.30 hPa52.00 %7.50 °C 
17:45:0017.80 °C1014.30 hPa51.00 %7.50 °C 
17:30:0017.80 °C1014.20 hPa51.00 %7.50 °C 
17:15:0017.60 °C1014.40 hPa50.00 %7.10 °C 
17:00:0018.40 °C1014.40 hPa49.00 %7.50 °C 
16:45:0019.00 °C1014.40 hPa48.00 %7.80 °C 
16:30:0019.20 °C1014.30 hPa48.00 %7.90 °C 
16:15:0019.30 °C1014.60 hPa49.00 %8.30 °C 
16:00:0018.10 °C1014.70 hPa51.00 %7.80 °C 
15:45:0018.30 °C1014.50 hPa49.00 %7.40 °C 
15:30:0019.50 °C1014.30 hPa48.00 %8.20 °C 
15:15:0019.10 °C1014.30 hPa50.00 %8.40 °C 
15:00:0018.80 °C1014.40 hPa49.00 %7.90 °C 
14:45:0019.10 °C1014.20 hPa49.00 %8.10 °C 
14:30:0018.10 °C1014.20 hPa53.00 %8.40 °C 
14:15:0017.40 °C1014.30 hPa51.00 %7.20 °C 
14:00:0017.90 °C1014.30 hPa51.00 %7.60 °C 
13:45:0018.30 °C1014.20 hPa51.00 %8.00 °C 
13:30:0018.40 °C1014.20 hPa52.00 %8.40 °C 
13:15:0017.90 °C1014.40 hPa54.00 %8.50 °C 
13:00:0017.90 °C1014.50 hPa52.00 %7.90 °C 
12:45:0017.90 °C1014.60 hPa51.00 %7.60 °C 
12:30:0018.30 °C1014.60 hPa51.00 %8.00 °C 
12:15:0018.20 °C1014.70 hPa53.00 %8.50 °C 
12:00:0017.90 °C1014.80 hPa55.00 %8.70 °C 
11:45:0016.70 °C1014.70 hPa56.00 %7.90 °C 
11:30:0016.40 °C1014.70 hPa55.00 %7.30 °C 
11:15:0016.50 °C1014.60 hPa53.00 %6.90 °C 
11:00:0017.10 °C1014.70 hPa53.00 %7.50 °C 
10:45:0017.20 °C1014.70 hPa54.00 %7.80 °C 
10:30:0017.00 °C1014.80 hPa55.00 %7.90 °C 
10:15:0017.50 °C1014.70 hPa54.00 %8.10 °C 
10:00:0017.20 °C1014.70 hPa54.00 %7.80 °C 
09:45:0016.50 °C1014.80 hPa56.00 %7.70 °C 
09:30:0016.20 °C1014.60 hPa57.00 %7.70 °C 
09:15:0016.10 °C1014.60 hPa58.00 %7.80 °C 
09:00:0015.80 °C1014.50 hPa59.00 %7.80 °C 
08:45:0015.40 °C1014.40 hPa61.00 %7.90 °C 
08:30:0014.90 °C1014.70 hPa61.00 %7.50 °C 
08:15:0014.90 °C1014.40 hPa61.00 %7.50 °C 
08:00:0014.70 °C1014.50 hPa62.00 %7.50 °C 
07:45:0014.60 °C1014.70 hPa63.00 %7.60 °C 
07:30:0014.30 °C1014.50 hPa63.00 %7.40 °C 
07:15:0014.00 °C1014.40 hPa64.00 %7.30 °C 
07:00:0013.90 °C1014.40 hPa65.00 %7.40 °C 
06:45:0013.50 °C1014.30 hPa69.00 %7.90 °C 
06:30:0012.10 °C1014.20 hPa76.00 %8.00 °C 
06:15:008.70 °C1014.10 hPa82.00 %5.80 °C 
06:00:006.80 °C1013.80 hPa80.00 %3.60 °C 
05:45:006.40 °C1013.80 hPa79.00 %3.00 °C 
05:30:006.80 °C1013.80 hPa78.00 %3.20 °C 
05:15:007.20 °C1013.70 hPa79.00 %3.80 °C 
05:00:006.40 °C1013.60 hPa78.00 %2.90 °C 
04:45:006.80 °C1013.60 hPa79.00 %3.40 °C 
04:30:006.30 °C1013.50 hPa78.00 %2.80 °C 
04:15:006.80 °C1013.60 hPa77.00 %3.10 °C 
04:00:007.10 °C1013.60 hPa77.00 %3.30 °C 
03:45:007.40 °C1013.70 hPa77.00 %3.60 °C 
03:30:006.90 °C1013.50 hPa77.00 %3.20 °C 
03:15:006.60 °C1013.60 hPa76.00 %2.70 °C 
03:00:006.80 °C1013.70 hPa75.00 %2.70 °C 
02:45:006.90 °C1013.80 hPa75.00 %2.80 °C 
02:30:007.00 °C1013.80 hPa73.00 %2.50 °C 
02:15:007.40 °C1013.90 hPa73.00 %2.90 °C 
02:00:007.60 °C1013.80 hPa72.00 %2.90 °C 
01:45:007.90 °C1013.90 hPa71.00 %3.00 °C 
01:30:008.40 °C1013.90 hPa72.00 %3.70 °C 
01:15:008.30 °C1013.90 hPa73.00 %3.80 °C 
01:00:008.10 °C1013.90 hPa73.00 %3.60 °C 
00:45:007.90 °C1013.70 hPa74.00 %3.60 °C 
00:30:007.40 °C1013.80 hPa75.00 %3.30 °C 
00:15:007.30 °C1013.90 hPa75.00 %3.20 °C 
00:00:007.40 °C1013.80 hPa74.00 %3.10 °C 

Permanenter Link zu dieser Seite: Wetter im Erzgebirge am 08.05.2016
Performance-Info: Die Erstellung der Seite / Statistik(en) / Tabelle(n) erforderte 5 Datenbankserver-Abfrage(n) und dauerte 104 Millisekunden. (Dieser Messwert ist von der Gesamt-Auslastung des Servers abhängig.)
Erzgebirge - Wetter | Erzgebirge - Wetter (Mobilgeräte) | Komplette Klimadatenbank